createdAt,value
2023-01-25T00:02:10.113Z,40.72
2023-01-25T00:04:37.089Z,41.67
2023-01-25T00:07:04.026Z,42.30
2023-01-25T00:09:30.989Z,43.17
2023-01-25T00:11:58.244Z,44.60
2023-01-25T00:14:25.619Z,41.22
2023-01-25T00:16:52.913Z,43.88
2023-01-25T00:19:19.933Z,44.28
2023-01-25T00:21:46.978Z,44.45
2023-01-25T00:24:14.673Z,43.47
2023-01-25T00:26:43.964Z,44.70
2023-01-25T00:29:14.735Z,44.70
2023-01-25T00:31:57.074Z,44.03
2023-01-25T00:34:27.247Z,44.17
2023-01-25T00:37:06.448Z,45.05
2023-01-25T00:39:33.583Z,45.97
2023-01-25T00:42:00.436Z,45.30
2023-01-25T00:44:27.569Z,46.22
2023-01-25T00:46:54.533Z,46.08
2023-01-25T00:49:24.539Z,46.67
2023-01-25T00:51:53.043Z,46.17
2023-01-25T00:54:20.662Z,46.13
2023-01-25T00:56:47.767Z,46.30
2023-01-25T00:59:15.286Z,48.63
2023-01-25T01:01:42.557Z,49.40
2023-01-25T01:04:09.896Z,48.10
2023-01-25T01:06:38.027Z,49.20
2023-01-25T01:09:06.998Z,49.38
2023-01-25T01:11:34.256Z,47.85
2023-01-25T01:14:01.131Z,48.85
2023-01-25T01:16:31.974Z,47.17
2023-01-25T01:18:59.014Z,49.28
2023-01-25T01:21:26.241Z,47.67
2023-01-25T01:23:55.177Z,48.40
2023-01-25T01:26:22.278Z,48.10
2023-01-25T01:28:49.455Z,47.33
2023-01-25T01:31:19.722Z,47.55
2023-01-25T01:33:58.271Z,45.28
2023-01-25T01:36:27.848Z,50.63
2023-01-25T01:38:55.276Z,48.20
2023-01-25T01:41:22.351Z,46.85
2023-01-25T01:43:49.667Z,50.42
2023-01-25T01:46:22.692Z,48.80
2023-01-25T01:48:53.264Z,47.50
2023-01-25T01:51:40.973Z,47.17
2023-01-25T01:54:25.941Z,49.25
2023-01-25T01:57:09.599Z,45.90
2023-01-25T01:59:52.891Z,47.60
2023-01-25T02:02:20.094Z,47.22
2023-01-25T02:04:49.302Z,49.80
2023-01-25T02:07:43.585Z,46.58
2023-01-25T02:10:12.426Z,46.85
2023-01-25T02:12:41.350Z,47.15
2023-01-25T02:15:09.606Z,49.08
2023-01-25T02:17:39.250Z,48.83
2023-01-25T02:20:35.425Z,47.80
2023-01-25T02:23:14.796Z,47.40
2023-01-25T02:25:42.288Z,46.65
2023-01-25T02:28:18.241Z,47.38
2023-01-25T02:30:45.806Z,46.05
2023-01-25T02:33:13.446Z,47.13
2023-01-25T02:35:53.931Z,45.45
2023-01-25T02:38:21.425Z,44.90
2023-01-25T02:40:57.751Z,47.47
2023-01-25T02:43:29.684Z,46.28
2023-01-25T02:46:28.542Z,48.38
2023-01-25T02:48:56.539Z,46.97
2023-01-25T02:51:25.782Z,46.97
2023-01-25T02:53:52.960Z,47.75
2023-01-25T02:56:21.109Z,46.25
2023-01-25T02:58:48.594Z,47.83
2023-01-25T03:01:16.767Z,47.08
2023-01-25T03:03:44.039Z,46.75
2023-01-25T03:06:11.041Z,45.20
2023-01-25T03:08:39.300Z,46.22
2023-01-25T03:11:07.269Z,49.17
2023-01-25T03:13:36.437Z,47.55
2023-01-25T03:16:08.159Z,48.10
2023-01-25T03:18:36.483Z,47.33
2023-01-25T03:21:12.952Z,45.30
2023-01-25T03:23:40.826Z,45.50
2023-01-25T03:26:15.094Z,49.10
2023-01-25T03:28:57.754Z,49.00
2023-01-25T03:31:25.257Z,49.33
2023-01-25T03:33:52.200Z,50.07
2023-01-25T03:36:22.869Z,49.80
2023-01-25T03:38:49.952Z,48.28
2023-01-25T03:41:17.742Z,50.00
2023-01-25T03:43:46.051Z,47.65
2023-01-25T03:46:16.684Z,49.08
2023-01-25T03:48:43.724Z,48.67
2023-01-25T03:51:11.363Z,48.95
2023-01-25T03:53:38.341Z,48.95
2023-01-25T03:56:19.967Z,49.92
2023-01-25T03:58:57.694Z,49.35
2023-01-25T04:01:24.678Z,51.30
2023-01-25T04:03:51.639Z,48.58
2023-01-25T04:06:18.761Z,47.83
2023-01-25T04:08:45.618Z,49.70
2023-01-25T04:11:13.963Z,48.17
2023-01-25T04:13:44.023Z,49.22
2023-01-25T04:16:13.542Z,49.00
2023-01-25T04:21:27.846Z,48.70
2023-01-25T04:23:54.920Z,49.78
2023-01-25T04:26:22.247Z,48.22
2023-01-25T04:28:54.667Z,49.38
2023-01-25T04:31:22.215Z,47.97
2023-01-25T04:33:50.741Z,47.90
2023-01-25T04:36:20.091Z,47.85
2023-01-25T04:38:47.995Z,46.47
2023-01-25T04:41:15.255Z,47.55
2023-01-25T04:43:43.631Z,46.22
2023-01-25T04:46:11.098Z,44.72
2023-01-25T04:48:38.049Z,45.83
2023-01-25T04:51:09.423Z,44.40
2023-01-25T04:53:36.533Z,46.35
2023-01-25T04:56:06.609Z,46.33
2023-01-25T04:58:41.625Z,45.95
2023-01-25T05:01:09.008Z,45.83
2023-01-25T05:03:36.015Z,46.92
2023-01-25T05:06:04.691Z,45.90
2023-01-25T05:08:31.632Z,45.10
2023-01-25T05:11:01.966Z,45.35
2023-01-25T05:13:49.909Z,44.53
2023-01-25T05:16:21.789Z,45.40
2023-01-25T05:18:49.578Z,45.42
2023-01-25T05:21:40.161Z,46.03
2023-01-25T05:24:08.375Z,44.00
2023-01-25T05:26:54.082Z,48.20
2023-01-25T05:29:21.736Z,45.88
2023-01-25T05:32:00.579Z,47.33
2023-01-25T05:34:29.098Z,46.83
2023-01-25T05:36:57.253Z,46.40
2023-01-25T05:39:24.993Z,45.50
2023-01-25T05:41:53.414Z,45.63
2023-01-25T05:44:20.895Z,46.80
2023-01-25T05:46:50.617Z,48.63
2023-01-25T05:49:18.052Z,47.97
2023-01-25T05:51:45.741Z,46.10
2023-01-25T05:54:15.656Z,46.63
2023-01-25T05:59:17.387Z,44.40
2023-01-25T06:01:44.879Z,45.55
2023-01-25T06:04:16.125Z,45.45
2023-01-25T06:06:43.181Z,48.40
2023-01-25T06:09:14.300Z,46.42
2023-01-25T06:11:45.089Z,46.42
2023-01-25T06:14:12.066Z,50.58
2023-01-25T06:16:39.057Z,47.40
2023-01-25T06:19:41.195Z,47.72
2023-01-25T06:22:28.303Z,49.20
2023-01-25T06:24:56.184Z,47.22
2023-01-25T06:27:23.015Z,47.17
2023-01-25T06:29:50.608Z,46.70
2023-01-25T06:32:17.684Z,48.17
2023-01-25T06:34:46.325Z,49.65
2023-01-25T06:37:21.885Z,48.75
2023-01-25T06:39:48.922Z,49.38
2023-01-25T06:42:15.924Z,50.22
2023-01-25T06:44:42.864Z,49.58
2023-01-25T06:47:10.233Z,50.35
2023-01-25T06:49:37.444Z,51.80
2023-01-25T06:52:04.407Z,50.60
2023-01-25T06:54:31.363Z,49.00
2023-01-25T06:56:58.218Z,49.95
2023-01-25T06:59:25.170Z,50.08
2023-01-25T07:01:52.039Z,48.10
2023-01-25T07:04:19.012Z,51.03
2023-01-25T07:06:48.370Z,50.88
2023-01-25T07:09:15.501Z,50.45
2023-01-25T07:11:42.513Z,51.72
2023-01-25T07:14:09.426Z,48.70
2023-01-25T07:16:37.362Z,50.30
2023-01-25T07:19:10.243Z,51.35
2023-01-25T07:21:37.160Z,50.80
2023-01-25T07:24:05.133Z,50.60
2023-01-25T07:26:32.342Z,49.03
2023-01-25T07:28:59.776Z,48.35
2023-01-25T07:31:27.624Z,50.90
2023-01-25T07:33:56.536Z,51.55
2023-01-25T07:36:23.859Z,50.53
2023-01-25T07:38:58.343Z,49.95
2023-01-25T07:41:25.977Z,50.30
2023-01-25T07:43:54.008Z,51.45
2023-01-25T07:46:35.663Z,49.03
2023-01-25T07:49:02.557Z,50.50
2023-01-25T07:51:31.049Z,49.55
2023-01-25T07:54:03.831Z,49.97
2023-01-25T07:56:37.747Z,48.75
2023-01-25T07:59:08.172Z,48.13
2023-01-25T08:01:36.885Z,48.83
2023-01-25T08:04:04.819Z,47.70
2023-01-25T08:06:39.012Z,48.35
2023-01-25T08:09:13.954Z,46.53
2023-01-25T08:11:42.429Z,48.42
2023-01-25T08:14:09.659Z,47.58
2023-01-25T08:16:37.000Z,50.33
2023-01-25T08:19:04.513Z,49.08
2023-01-25T08:21:33.598Z,48.47
2023-01-25T08:24:03.903Z,49.70
2023-01-25T08:26:31.093Z,49.25
2023-01-25T08:28:58.348Z,49.60
2023-01-25T08:31:28.680Z,50.10
2023-01-25T08:33:56.415Z,48.60
2023-01-25T08:36:24.326Z,48.20
2023-01-25T08:39:01.351Z,47.80
2023-01-25T08:41:30.362Z,49.20
2023-01-25T08:43:57.746Z,46.10
2023-01-25T08:46:29.377Z,46.08
2023-01-25T08:48:59.257Z,47.00
2023-01-25T08:51:26.935Z,48.40
2023-01-25T08:53:53.926Z,47.58
2023-01-25T08:56:20.836Z,44.72
2023-01-25T08:58:49.982Z,45.53
2023-01-25T09:01:19.155Z,47.03
2023-01-25T09:03:50.675Z,46.58
2023-01-25T09:06:19.688Z,46.50
2023-01-25T09:08:46.954Z,46.53
2023-01-25T09:11:16.928Z,48.63
2023-01-25T09:13:44.316Z,46.92
2023-01-25T09:16:17.367Z,48.08
2023-01-25T09:18:45.168Z,47.40
2023-01-25T09:21:18.011Z,46.30
2023-01-25T09:24:05.550Z,49.25
2023-01-25T09:26:36.097Z,48.03
2023-01-25T09:29:03.181Z,48.00
2023-01-25T09:31:30.471Z,47.85
2023-01-25T09:34:33.081Z,48.08
2023-01-25T09:36:59.952Z,50.60
2023-01-25T09:39:27.055Z,50.22
2023-01-25T09:42:20.522Z,50.63
2023-01-25T09:44:54.056Z,51.55
2023-01-25T09:47:47.702Z,53.47
2023-01-25T09:50:34.937Z,50.45
2023-01-25T09:53:04.725Z,49.17
2023-01-25T09:55:33.202Z,51.30
2023-01-25T09:58:02.751Z,51.75
2023-01-25T10:00:52.701Z,49.20
2023-01-25T10:03:50.790Z,49.28
2023-01-25T10:06:19.161Z,50.15
2023-01-25T10:09:22.298Z,51.10
2023-01-25T10:11:49.319Z,51.28
2023-01-25T10:14:18.825Z,50.75
2023-01-25T10:16:50.106Z,51.15
2023-01-25T10:19:23.076Z,51.30
2023-01-25T10:22:18.243Z,51.80
2023-01-25T10:25:18.607Z,51.00
2023-01-25T10:28:10.304Z,50.75
2023-01-25T10:30:49.592Z,51.03
2023-01-25T10:33:20.041Z,51.67
2023-01-25T10:35:49.685Z,50.25
2023-01-25T10:38:25.676Z,51.90
2023-01-25T10:41:02.171Z,52.70
2023-01-25T10:43:29.807Z,49.78
2023-01-25T10:45:56.808Z,51.88
2023-01-25T10:48:29.955Z,51.58
2023-01-25T10:50:57.869Z,49.65
2023-01-25T10:53:36.732Z,51.90
2023-01-25T10:56:03.683Z,54.33
2023-01-25T10:58:33.686Z,49.17
2023-01-25T11:01:01.536Z,52.03
2023-01-25T11:03:39.278Z,50.28
2023-01-25T11:06:08.379Z,52.03
2023-01-25T11:08:36.568Z,64.85
2023-01-25T11:11:22.641Z,66.97
2023-01-25T11:13:50.132Z,58.30
2023-01-25T11:16:23.532Z,55.80
2023-01-25T11:18:53.030Z,54.20
2023-01-25T11:21:25.340Z,53.13
2023-01-25T11:24:09.042Z,54.42
2023-01-25T11:26:40.811Z,54.42
2023-01-25T11:29:24.808Z,53.03
2023-01-25T11:31:55.548Z,54.70
2023-01-25T11:34:26.616Z,52.60
2023-01-25T11:37:08.949Z,54.13
2023-01-25T11:39:45.043Z,53.42
2023-01-25T11:42:32.707Z,52.00
2023-01-25T11:45:14.754Z,52.97
2023-01-25T11:47:53.052Z,53.60
2023-01-25T11:50:59.907Z,54.63
2023-01-25T11:53:26.859Z,58.25
2023-01-25T11:56:25.821Z,58.85
2023-01-25T11:59:01.674Z,59.42
2023-01-25T12:01:48.227Z,56.40
2023-01-25T12:04:27.124Z,53.40
2023-01-25T12:06:59.582Z,51.10
2023-01-25T12:09:47.230Z,52.80
2023-01-25T12:12:22.133Z,51.25
2023-01-25T12:14:51.757Z,50.20
2023-01-25T12:17:37.250Z,49.13
2023-01-25T12:20:23.266Z,48.95
2023-01-25T12:23:09.152Z,50.35
2023-01-25T12:28:51.923Z,49.35
2023-01-25T12:31:25.009Z,50.50
2023-01-25T12:34:05.083Z,50.40
2023-01-25T12:36:44.556Z,52.40
2023-01-25T12:39:19.284Z,52.15
2023-01-25T12:41:57.112Z,50.45
2023-01-25T12:44:35.962Z,52.38
2023-01-25T12:47:20.688Z,54.80
2023-01-25T12:49:54.103Z,52.60
2023-01-25T12:52:37.548Z,54.65
2023-01-25T12:55:06.954Z,53.50
2023-01-25T12:57:55.840Z,53.20
2023-01-25T13:00:34.998Z,53.40
2023-01-25T13:03:22.191Z,54.33
2023-01-25T13:05:54.858Z,56.45
2023-01-25T13:08:33.756Z,54.65
2023-01-25T13:11:13.287Z,54.53
2023-01-25T13:13:40.509Z,55.65
2023-01-25T13:16:35.130Z,53.65
2023-01-25T13:19:02.387Z,52.00
2023-01-25T13:21:40.263Z,50.45
2023-01-25T13:24:23.453Z,50.95
2023-01-25T13:26:57.369Z,52.85
2023-01-25T13:29:39.699Z,52.30
2023-01-25T13:32:13.195Z,50.80
2023-01-25T13:34:44.274Z,51.47
2023-01-25T13:37:31.054Z,49.75
2023-01-25T13:40:10.856Z,48.15
2023-01-25T13:42:39.606Z,51.15
2023-01-25T13:45:27.300Z,49.92
2023-01-25T13:48:05.367Z,48.58
2023-01-25T13:50:38.112Z,48.97
2023-01-25T13:53:18.236Z,48.15
2023-01-25T13:55:54.222Z,49.22
2023-01-25T13:58:28.205Z,49.15
2023-01-25T14:01:06.487Z,50.00
2023-01-25T14:03:50.094Z,49.38
2023-01-25T14:06:25.094Z,51.97
2023-01-25T14:08:54.208Z,54.83
2023-01-25T14:11:24.794Z,50.22
2023-01-25T14:14:21.570Z,50.75
2023-01-25T14:17:10.152Z,51.03
2023-01-25T14:19:39.962Z,50.75
2023-01-25T14:22:27.009Z,48.53
2023-01-25T14:25:08.149Z,49.63
2023-01-25T14:27:54.042Z,48.45
2023-01-25T14:30:25.552Z,48.42
2023-01-25T14:32:55.351Z,50.47
2023-01-25T14:35:53.672Z,49.72
2023-01-25T14:38:39.669Z,48.38
2023-01-25T14:41:14.462Z,47.05
2023-01-25T14:43:45.359Z,45.45
2023-01-25T14:46:23.037Z,50.10
2023-01-25T14:48:50.252Z,48.88
2023-01-25T14:51:28.703Z,46.85
2023-01-25T14:54:05.500Z,50.00
2023-01-25T14:56:42.488Z,51.85
2023-01-25T14:59:30.115Z,49.50
2023-01-25T15:02:19.821Z,49.75
2023-01-25T15:04:58.020Z,48.03
2023-01-25T15:07:41.174Z,51.10
2023-01-25T15:10:27.163Z,53.30
2023-01-25T15:13:27.196Z,50.15
2023-01-25T15:15:57.799Z,52.10
2023-01-25T15:18:46.077Z,52.03
2023-01-25T15:21:24.324Z,51.13
2023-01-25T15:23:51.935Z,51.20
2023-01-25T15:26:29.813Z,53.25
2023-01-25T15:29:02.213Z,54.97
2023-01-25T15:31:32.246Z,53.42
2023-01-25T15:34:01.417Z,52.75
2023-01-25T15:36:29.994Z,53.58
2023-01-25T15:38:57.308Z,53.28
2023-01-25T15:41:24.774Z,51.15
2023-01-25T15:43:52.429Z,53.20
2023-01-25T15:46:21.455Z,53.75
2023-01-25T15:48:50.205Z,52.30
2023-01-25T15:51:17.893Z,53.25
2023-01-25T15:53:45.057Z,49.55
2023-01-25T15:56:20.365Z,52.22
2023-01-25T15:59:15.014Z,50.35
2023-01-25T16:01:42.070Z,51.72
2023-01-25T16:04:10.882Z,50.80
2023-01-25T16:06:44.111Z,52.72
2023-01-25T16:09:20.477Z,52.53
2023-01-25T16:11:51.162Z,50.10
2023-01-25T16:14:18.933Z,54.13
2023-01-25T16:16:49.329Z,48.95
2023-01-25T16:19:18.915Z,52.65
2023-01-25T16:21:45.794Z,50.45
2023-01-25T16:24:13.156Z,49.70
2023-01-25T16:27:06.528Z,51.45
2023-01-25T16:29:33.540Z,51.17
2023-01-25T16:32:00.569Z,49.83
2023-01-25T16:34:27.594Z,50.42
2023-01-25T16:36:54.515Z,50.97
2023-01-25T16:39:24.129Z,52.75
2023-01-25T16:41:51.577Z,51.80
2023-01-25T16:44:18.733Z,49.00
2023-01-25T16:46:48.251Z,51.53
2023-01-25T16:49:26.568Z,47.88
2023-01-25T16:51:54.605Z,49.83
2023-01-25T16:54:22.239Z,50.13
2023-01-25T16:56:50.998Z,50.58
2023-01-25T16:59:18.970Z,49.90
2023-01-25T17:01:46.245Z,48.17
2023-01-25T17:04:13.711Z,49.75
2023-01-25T17:06:46.881Z,49.83
2023-01-25T17:09:23.686Z,47.50
2023-01-25T17:11:52.451Z,48.20
2023-01-25T17:14:20.209Z,48.25
2023-01-25T17:16:50.351Z,49.80
2023-01-25T17:19:18.274Z,51.13
2023-01-25T17:21:45.850Z,49.63
2023-01-25T17:24:15.181Z,54.75
2023-01-25T17:26:42.586Z,59.88
2023-01-25T17:29:10.335Z,67.38
2023-01-25T17:31:39.703Z,87.60
2023-01-25T17:34:10.939Z,51.63
2023-01-25T17:36:37.950Z,54.70
2023-01-25T17:39:06.543Z,66.15
2023-01-25T17:41:33.769Z,54.75
2023-01-25T17:44:01.003Z,50.60
2023-01-25T17:46:37.474Z,46.95
2023-01-25T17:49:07.565Z,49.08
2023-01-25T17:51:36.244Z,46.90
2023-01-25T17:54:05.145Z,48.28
2023-01-25T17:56:32.469Z,46.85
2023-01-25T17:59:01.431Z,48.28
2023-01-25T18:01:32.011Z,48.33
2023-01-25T18:04:00.731Z,49.47
2023-01-25T18:06:30.949Z,48.88
2023-01-25T18:09:00.736Z,48.92
2023-01-25T18:11:30.985Z,48.75
2023-01-25T18:14:01.005Z,49.45
2023-01-25T18:16:29.971Z,46.85
2023-01-25T18:18:58.852Z,48.80
2023-01-25T18:21:28.566Z,49.10
2023-01-25T18:24:01.391Z,51.35
2023-01-25T18:26:30.772Z,48.03
2023-01-25T18:29:09.948Z,48.28
2023-01-25T18:31:37.251Z,46.10
2023-01-25T18:34:04.633Z,49.05
2023-01-25T18:36:31.574Z,47.33
2023-01-25T18:38:59.999Z,46.35
2023-01-25T18:41:27.187Z,48.00
2023-01-25T18:43:54.122Z,47.10
2023-01-25T18:46:21.174Z,47.53
2023-01-25T18:48:48.437Z,45.47
2023-01-25T18:51:17.740Z,46.53
2023-01-25T18:53:47.448Z,46.78
2023-01-25T18:56:20.618Z,48.85
2023-01-25T18:58:48.337Z,47.88
2023-01-25T19:01:18.093Z,48.17
2023-01-25T19:03:46.575Z,48.25
2023-01-25T19:06:14.041Z,50.05
2023-01-25T19:08:43.157Z,49.58
2023-01-25T19:11:13.421Z,50.33
2023-01-25T19:13:41.866Z,50.47
2023-01-25T19:16:20.913Z,50.38
2023-01-25T19:18:50.114Z,48.63
2023-01-25T19:21:25.605Z,47.33
2023-01-25T19:23:53.906Z,50.35
2023-01-25T19:26:25.042Z,51.97
2023-01-25T19:28:52.886Z,51.20
2023-01-25T19:31:22.476Z,52.65
2023-01-25T19:33:55.469Z,50.63
2023-01-25T19:36:22.945Z,51.08
2023-01-25T19:38:50.317Z,52.28
2023-01-25T19:41:25.876Z,51.03
2023-01-25T19:44:01.210Z,52.72
2023-01-25T19:48:58.565Z,49.20
2023-01-25T19:51:28.295Z,52.05
2023-01-25T19:54:00.025Z,50.80
2023-01-25T19:56:29.356Z,52.47
2023-01-25T19:58:56.430Z,51.67
2023-01-25T20:01:28.904Z,53.50
2023-01-25T20:04:02.200Z,52.70
2023-01-25T20:06:29.286Z,55.28
2023-01-25T20:08:56.548Z,57.45
2023-01-25T20:11:26.317Z,54.35
2023-01-25T20:13:58.061Z,55.78
2023-01-25T20:16:25.645Z,56.40
2023-01-25T20:18:52.736Z,58.35
2023-01-25T20:21:21.780Z,58.00
2023-01-25T20:23:57.066Z,57.20
2023-01-25T20:28:56.000Z,53.58
2023-01-25T20:31:23.059Z,57.42
2023-01-25T20:33:51.119Z,56.28
2023-01-25T20:36:18.009Z,57.60
2023-01-25T20:38:45.563Z,58.60
2023-01-25T20:41:14.499Z,57.15
2023-01-25T20:43:53.112Z,56.15
2023-01-25T20:46:21.765Z,58.90
2023-01-25T20:48:49.161Z,60.95
2023-01-25T20:51:21.426Z,58.65
2023-01-25T20:53:50.075Z,61.72
2023-01-25T20:56:18.876Z,59.05
2023-01-25T20:58:50.543Z,58.30
2023-01-25T21:01:24.735Z,59.75
2023-01-25T21:03:54.435Z,56.25
2023-01-25T21:06:21.351Z,57.50
2023-01-25T21:08:48.221Z,58.70
2023-01-25T21:11:15.481Z,57.10
2023-01-25T21:13:42.612Z,55.92
2023-01-25T21:16:11.000Z,57.78
2023-01-25T21:18:49.124Z,58.70
2023-01-25T21:21:28.188Z,58.88
2023-01-25T21:23:58.167Z,57.38
2023-01-25T21:26:28.016Z,55.70
2023-01-25T21:28:55.426Z,56.40
2023-01-25T21:31:24.788Z,58.67
2023-01-25T21:33:52.228Z,54.25
2023-01-25T21:36:20.042Z,56.95
2023-01-25T21:38:52.525Z,56.22
2023-01-25T21:41:25.293Z,57.65
2023-01-25T21:44:15.796Z,54.25
2023-01-25T21:46:52.342Z,53.10
2023-01-25T21:49:46.466Z,51.73
2023-01-25T21:52:13.552Z,51.00
2023-01-25T21:54:40.431Z,51.35
2023-01-25T21:57:09.354Z,49.40
2023-01-25T21:59:38.037Z,49.13
2023-01-25T22:02:06.419Z,49.50
2023-01-25T22:04:36.263Z,48.47
2023-01-25T22:07:04.410Z,50.35
2023-01-25T22:09:31.598Z,47.20
2023-01-25T22:11:58.690Z,48.33
2023-01-25T22:14:25.603Z,47.33
2023-01-25T22:16:52.867Z,49.67
2023-01-25T22:19:20.379Z,46.08
2023-01-25T22:21:47.820Z,45.50
2023-01-25T22:24:15.089Z,47.95
2023-01-25T22:26:51.649Z,48.55
2023-01-25T22:29:18.568Z,45.40
2023-01-25T22:31:45.518Z,46.05
2023-01-25T22:34:12.478Z,46.60
2023-01-25T22:36:39.319Z,46.97
2023-01-25T22:39:06.420Z,45.38
2023-01-25T22:41:37.236Z,45.40
2023-01-25T22:44:04.594Z,43.85
2023-01-25T22:46:31.523Z,44.15
2023-01-25T22:48:59.087Z,46.28
2023-01-25T22:51:29.007Z,42.72
2023-01-25T22:53:57.871Z,47.40
2023-01-25T22:56:32.058Z,45.10
2023-01-25T22:59:00.518Z,47.40
2023-01-25T23:01:30.722Z,44.15
2023-01-25T23:03:58.217Z,45.38
2023-01-25T23:06:27.651Z,42.60
2023-01-25T23:09:03.327Z,41.65
2023-01-25T23:11:35.793Z,42.63
2023-01-25T23:14:26.784Z,41.45
2023-01-25T23:17:13.924Z,41.42
2023-01-25T23:19:40.897Z,41.88
2023-01-25T23:22:07.812Z,39.92
2023-01-25T23:24:34.738Z,41.85
2023-01-25T23:27:01.659Z,39.97
2023-01-25T23:29:28.598Z,40.97
2023-01-25T23:31:55.500Z,38.72
2023-01-25T23:34:22.451Z,37.03
2023-01-25T23:36:49.305Z,36.55
2023-01-25T23:39:16.261Z,41.60
2023-01-25T23:41:43.090Z,39.63
2023-01-25T23:44:09.970Z,45.30
2023-01-25T23:46:37.196Z,42.50
2023-01-25T23:49:04.603Z,43.63
2023-01-25T23:51:31.455Z,41.28
2023-01-25T23:53:58.438Z,42.90
2023-01-25T23:56:25.504Z,44.80
2023-01-25T23:58:52.567Z,43.45
